Terminal Aerodrome Forecast
Issued by NWS

Current Version | Previous Version | Text Only | Print | Product List | Glossary On
Versions: 1 2 3 4 5 6 7 8 9 10 11 12 13 14 15 16 17 18
000
FTUS44 KBMX 281740
TAFTCL
TAF
KTCL 281740Z 2818/2918 23010G18KT P6SM VCTS BKN040CB
     FM290100 21005KT P6SM SCT050
     FM291200 20010G15KT P6SM VCTS BKN030CB=

USA.gov is the U.S. government's official web portal to all federal, state and local government web resources and services.